createdAt,value
2017-09-18T00:02:24.729Z,90.62
2017-09-18T00:04:53.810Z,92.00
2017-09-18T00:07:22.126Z,91.88
2017-09-18T00:09:51.230Z,93.00
2017-09-18T00:12:20.338Z,92.91
2017-09-18T00:14:48.648Z,92.50
2017-09-18T00:17:16.954Z,93.71
2017-09-18T00:19:45.302Z,92.86
2017-09-18T00:22:13.615Z,93.32
2017-09-18T00:24:41.933Z,93.50
2017-09-18T00:27:10.273Z,92.90
2017-09-18T00:29:38.586Z,92.26
2017-09-18T00:32:06.895Z,92.05
2017-09-18T00:34:35.232Z,93.14
2017-09-18T00:37:04.325Z,92.36
2017-09-18T00:39:33.402Z,92.02
2017-09-18T00:42:01.743Z,91.26
2017-09-18T00:44:30.050Z,90.46
2017-09-18T00:46:58.378Z,90.62
2017-09-18T00:49:26.681Z,90.09
2017-09-18T00:51:55.018Z,89.70
2017-09-18T00:54:24.093Z,90.13
2017-09-18T00:56:52.406Z,90.59
2017-09-18T00:59:21.505Z,91.12
2017-09-18T01:01:50.587Z,90.30
2017-09-18T01:04:19.666Z,91.07
2017-09-18T01:06:48.006Z,91.39
2017-09-18T01:09:16.312Z,92.15
2017-09-18T01:11:44.665Z,92.35
2017-09-18T01:14:12.974Z,91.64
2017-09-18T01:16:41.396Z,91.21
2017-09-18T01:19:10.474Z,91.21
2017-09-18T01:21:38.814Z,92.36
2017-09-18T01:24:07.130Z,91.87
2017-09-18T01:26:35.442Z,91.35
2017-09-18T01:29:03.775Z,90.83
2017-09-18T01:31:32.102Z,89.60
2017-09-18T01:34:00.414Z,90.05
2017-09-18T01:36:28.747Z,88.91
2017-09-18T01:38:57.825Z,90.04
2017-09-18T01:41:26.143Z,90.20
2017-09-18T01:43:54.522Z,90.65
2017-09-18T01:46:22.827Z,90.99
2017-09-18T01:48:51.134Z,91.04
2017-09-18T01:51:19.476Z,90.83
2017-09-18T01:53:47.780Z,90.49
2017-09-18T01:56:16.093Z,89.70
2017-09-18T01:58:45.202Z,89.70
2017-09-18T02:01:14.273Z,91.21
2017-09-18T02:03:42.583Z,90.29
2017-09-18T02:06:11.684Z,89.51
2017-09-18T02:08:39.998Z,89.07
2017-09-18T02:11:08.308Z,90.55
2017-09-18T02:13:36.657Z,92.23
2017-09-18T02:16:04.970Z,91.88
2017-09-18T02:18:33.278Z,91.18
2017-09-18T02:21:02.383Z,91.26
2017-09-18T02:23:30.710Z,91.34
2017-09-18T02:25:59.790Z,91.70
2017-09-18T02:28:28.134Z,91.73
2017-09-18T02:30:57.211Z,91.52
2017-09-18T02:33:26.291Z,91.65
2017-09-18T02:35:54.633Z,91.94
2017-09-18T02:38:22.958Z,91.14
2017-09-18T02:40:51.271Z,91.94
2017-09-18T02:43:19.611Z,93.25
2017-09-18T02:45:47.928Z,93.18
2017-09-18T02:48:17.011Z,93.14
2017-09-18T02:50:46.125Z,92.38
2017-09-18T02:53:14.434Z,91.32
2017-09-18T02:55:42.739Z,91.87
2017-09-18T02:58:11.074Z,91.96
2017-09-18T03:00:39.472Z,92.16
2017-09-18T03:03:07.782Z,92.24
2017-09-18T03:05:36.126Z,92.62
2017-09-18T03:08:04.438Z,93.21
2017-09-18T03:10:32.753Z,91.91
2017-09-18T03:13:01.855Z,93.06
2017-09-18T03:15:30.930Z,93.22
2017-09-18T03:17:59.242Z,93.23
2017-09-18T03:20:27.577Z,93.92
2017-09-18T03:22:55.887Z,93.78
2017-09-18T03:25:24.965Z,93.64
2017-09-18T03:27:53.290Z,93.48
2017-09-18T03:30:21.599Z,93.14
2017-09-18T03:32:49.906Z,91.94
2017-09-18T03:35:19.052Z,93.40
2017-09-18T03:37:47.357Z,93.00
2017-09-18T03:40:15.661Z,92.48
2017-09-18T03:42:44.000Z,91.77
2017-09-18T03:45:12.312Z,92.20
2017-09-18T03:47:40.622Z,91.62
2017-09-18T03:50:09.721Z,92.11
2017-09-18T03:52:38.794Z,92.07
2017-09-18T03:55:07.114Z,91.38
2017-09-18T03:57:35.450Z,90.80
2017-09-18T04:00:03.758Z,89.98
2017-09-18T04:02:32.842Z,90.55
2017-09-18T04:05:01.947Z,90.25
2017-09-18T04:07:31.020Z,90.77
2017-09-18T04:09:59.423Z,90.29
2017-09-18T04:12:28.530Z,90.38
2017-09-18T04:14:57.602Z,90.18
2017-09-18T04:17:26.688Z,90.89
2017-09-18T04:19:55.028Z,90.31
2017-09-18T04:22:23.335Z,90.38
2017-09-18T04:24:51.646Z,89.47
2017-09-18T04:27:20.743Z,89.82
2017-09-18T04:29:49.822Z,90.21
2017-09-18T04:32:18.130Z,89.66
2017-09-18T04:34:47.232Z,89.37
2017-09-18T04:37:16.305Z,89.55
2017-09-18T04:39:44.626Z,88.87
2017-09-18T04:42:12.958Z,88.31
2017-09-18T04:44:41.267Z,90.01
2017-09-18T04:47:10.347Z,89.26
2017-09-18T04:49:39.455Z,89.48
2017-09-18T04:52:08.530Z,88.87
2017-09-18T04:54:36.839Z,88.37
2017-09-18T04:57:05.939Z,88.55
2017-09-18T04:59:34.250Z,88.95
2017-09-18T05:02:02.558Z,89.53
2017-09-18T05:04:30.898Z,89.90
2017-09-18T05:06:59.971Z,89.86
2017-09-18T05:09:29.045Z,90.39
2017-09-18T05:11:57.378Z,91.42
2017-09-18T05:14:25.686Z,91.75
2017-09-18T05:16:53.998Z,90.62
2017-09-18T05:19:23.098Z,91.52
2017-09-18T05:21:52.174Z,92.06
2017-09-18T05:24:20.493Z,92.86
2017-09-18T05:26:48.872Z,92.89
2017-09-18T05:29:17.189Z,92.67
2017-09-18T05:31:45.552Z,92.52
2017-09-18T05:34:13.884Z,92.46
2017-09-18T05:36:42.186Z,92.17
2017-09-18T05:39:10.490Z,92.42
2017-09-18T05:41:38.828Z,92.01
2017-09-18T05:44:07.903Z,91.86
2017-09-18T05:46:36.212Z,91.31
2017-09-18T05:49:05.317Z,91.13
2017-09-18T05:51:34.394Z,91.66
2017-09-18T05:54:02.702Z,92.48
2017-09-18T05:56:31.034Z,91.96
2017-09-18T05:58:59.347Z,91.39
2017-09-18T06:01:28.417Z,91.76
2017-09-18T06:03:56.761Z,91.91
2017-09-18T06:06:25.066Z,91.00
2017-09-18T06:08:53.380Z,91.18
2017-09-18T06:11:22.482Z,90.82
2017-09-18T06:13:51.563Z,91.05
2017-09-18T06:16:19.878Z,92.70
2017-09-18T06:18:48.213Z,92.82
2017-09-18T06:21:20.687Z,92.39
2017-09-18T06:23:49.050Z,93.21
2017-09-18T06:26:17.394Z,94.22
2017-09-18T06:28:45.710Z,95.15
2017-09-18T06:31:14.014Z,94.73
2017-09-18T06:33:42.366Z,94.01
2017-09-18T06:36:10.712Z,93.57
2017-09-18T06:38:39.021Z,92.82
2017-09-18T06:41:07.359Z,93.52
2017-09-18T06:43:36.463Z,94.16
2017-09-18T06:46:04.769Z,93.42
2017-09-18T06:48:33.111Z,93.45
2017-09-18T06:51:02.181Z,92.97
2017-09-18T06:53:30.490Z,92.28
2017-09-18T06:55:59.586Z,92.06
2017-09-18T06:58:28.692Z,91.84
2017-09-18T07:00:57.766Z,91.40
2017-09-18T07:03:26.878Z,90.86
2017-09-18T07:05:55.950Z,89.99
2017-09-18T07:08:24.263Z,89.24
2017-09-18T07:10:52.602Z,89.57
2017-09-18T07:13:20.912Z,88.41
2017-09-18T07:15:50.014Z,86.82
2017-09-18T07:18:19.114Z,86.00
2017-09-18T07:20:48.186Z,85.67
2017-09-18T07:23:16.519Z,85.18
2017-09-18T07:25:44.826Z,84.21
2017-09-18T07:28:13.161Z,83.48
2017-09-18T07:30:41.495Z,84.99
2017-09-18T07:33:09.806Z,84.66
2017-09-18T07:35:38.914Z,85.25
2017-09-18T07:38:07.225Z,84.93
2017-09-18T07:40:35.569Z,84.85
2017-09-18T07:43:04.646Z,84.42
2017-09-18T07:45:33.735Z,84.74
2017-09-18T07:48:02.081Z,84.47
2017-09-18T07:50:30.394Z,85.19
2017-09-18T07:52:58.710Z,85.42
2017-09-18T07:55:27.338Z,85.26
2017-09-18T07:57:55.654Z,86.34
2017-09-18T08:00:24.738Z,84.88
2017-09-18T08:02:53.074Z,86.07
2017-09-18T08:05:21.385Z,87.67
2017-09-18T08:07:49.699Z,86.26
2017-09-18T08:10:18.806Z,86.32
2017-09-18T08:12:47.128Z,86.60
2017-09-18T08:15:15.470Z,86.17
2017-09-18T08:17:43.790Z,86.98
2017-09-18T08:20:12.134Z,88.25
2017-09-18T08:22:40.450Z,87.99
2017-09-18T08:25:08.768Z,87.78
2017-09-18T08:27:37.866Z,87.99
2017-09-18T08:30:06.954Z,88.29
2017-09-18T08:32:36.034Z,89.41
2017-09-18T08:35:04.479Z,89.00
2017-09-18T08:37:32.783Z,89.87
2017-09-18T08:40:01.122Z,89.86
2017-09-18T08:42:29.444Z,89.30
2017-09-18T08:44:57.766Z,88.21
2017-09-18T08:47:26.875Z,89.30
2017-09-18T08:49:55.195Z,89.08
2017-09-18T08:52:23.538Z,88.34
2017-09-18T08:54:51.858Z,88.69
2017-09-18T08:57:20.198Z,88.79
2017-09-18T08:59:48.549Z,87.15
2017-09-18T09:02:17.634Z,86.71
2017-09-18T09:04:45.952Z,84.89
2017-09-18T09:07:14.291Z,85.13
2017-09-18T09:09:42.610Z,84.43
2017-09-18T09:12:10.951Z,84.00
2017-09-18T09:14:39.261Z,83.63
2017-09-18T09:17:08.338Z,81.79
2017-09-18T09:19:36.686Z,82.70
2017-09-18T09:22:05.047Z,82.43
2017-09-18T09:24:33.389Z,81.41
2017-09-18T09:27:02.525Z,82.70
2017-09-18T09:29:30.842Z,82.29
2017-09-18T09:31:59.187Z,81.98
2017-09-18T09:34:27.503Z,83.24
2017-09-18T09:36:55.822Z,83.43
2017-09-18T09:39:24.166Z,83.83
2017-09-18T09:41:52.480Z,83.52
2017-09-18T09:44:20.825Z,83.81
2017-09-18T09:46:49.142Z,84.63
2017-09-18T09:49:17.490Z,84.42
2017-09-18T09:51:45.802Z,84.65
2017-09-18T09:54:14.126Z,86.31
2017-09-18T09:56:42.471Z,85.59
2017-09-18T09:59:10.789Z,84.17
2017-09-18T10:01:39.116Z,83.73
2017-09-18T10:04:08.218Z,83.02
2017-09-18T10:06:36.534Z,82.57
2017-09-18T10:09:04.874Z,80.90
2017-09-18T10:11:33.959Z,80.95
2017-09-18T10:14:03.070Z,78.55
2017-09-18T10:16:32.154Z,78.15
2017-09-18T10:19:01.254Z,77.50
2017-09-18T10:21:30.361Z,76.71
2017-09-18T10:23:59.448Z,76.57
2017-09-18T10:26:28.530Z,76.94
2017-09-18T10:28:56.879Z,76.30
2017-09-18T10:31:25.191Z,75.33
2017-09-18T10:36:21.142Z,74.51
2017-09-18T10:38:50.222Z,74.13
2017-09-18T10:41:18.537Z,74.12
2017-09-18T10:43:46.882Z,73.81
2017-09-18T10:46:15.194Z,74.23
2017-09-18T10:48:44.278Z,74.05
2017-09-18T10:51:13.387Z,74.74
2017-09-18T10:53:42.474Z,74.93
2017-09-18T10:56:11.558Z,74.72
2017-09-18T10:58:39.993Z,74.38
2017-09-18T11:01:08.311Z,74.52
2017-09-18T11:03:36.626Z,74.44
2017-09-18T11:06:05.740Z,73.40
2017-09-18T11:08:34.064Z,74.42
2017-09-18T11:11:02.379Z,73.84
2017-09-18T11:13:31.490Z,72.43
2017-09-18T11:15:59.814Z,68.94
2017-09-18T11:18:28.130Z,69.42
2017-09-18T11:20:57.234Z,70.99
2017-09-18T11:23:26.315Z,70.34
2017-09-18T11:25:55.398Z,72.25
2017-09-18T11:28:23.742Z,71.77
2017-09-18T11:30:52.058Z,71.63
2017-09-18T11:33:20.370Z,72.26
2017-09-18T11:35:49.482Z,70.85
2017-09-18T11:38:17.795Z,67.61
2017-09-18T11:40:46.110Z,69.88
2017-09-18T11:43:15.219Z,69.04
2017-09-18T11:45:44.298Z,69.11
2017-09-18T11:48:12.622Z,70.37
2017-09-18T11:50:40.962Z,68.31
2017-09-18T11:53:10.046Z,67.87
2017-09-18T11:55:38.358Z,69.71
2017-09-18T11:58:07.482Z,68.92
2017-09-18T12:00:35.799Z,67.33
2017-09-18T12:03:04.119Z,67.84
2017-09-18T12:05:32.462Z,67.21
2017-09-18T12:08:00.782Z,67.90
2017-09-18T12:10:29.098Z,66.58
2017-09-18T12:12:57.442Z,66.87
2017-09-18T12:15:25.774Z,69.76
2017-09-18T12:17:54.097Z,69.15
2017-09-18T12:20:23.203Z,69.84
2017-09-18T12:22:51.519Z,71.16
2017-09-18T12:25:19.838Z,72.74
2017-09-18T12:27:48.945Z,72.69
2017-09-18T12:30:18.031Z,72.39
2017-09-18T12:32:47.172Z,73.48
2017-09-18T12:35:15.511Z,75.32
2017-09-18T12:37:44.591Z,76.57
2017-09-18T12:40:12.907Z,79.64
2017-09-18T12:42:41.246Z,81.09
2017-09-18T12:45:09.559Z,81.94
2017-09-18T12:47:38.680Z,84.52
2017-09-18T12:50:06.997Z,83.36
2017-09-18T12:52:35.318Z,82.84
2017-09-18T12:55:04.418Z,78.59
2017-09-18T12:57:33.531Z,77.17
2017-09-18T13:00:01.843Z,77.36
2017-09-18T13:02:30.191Z,78.37
2017-09-18T13:04:58.502Z,77.01
2017-09-18T13:07:26.814Z,75.01
2017-09-18T13:09:55.162Z,75.54
2017-09-18T13:12:23.475Z,74.79
2017-09-18T13:14:51.800Z,75.81
2017-09-18T13:17:20.142Z,77.72
2017-09-18T13:19:49.218Z,78.22
2017-09-18T13:22:17.540Z,77.10
2017-09-18T13:24:45.887Z,76.30
2017-09-18T13:27:14.207Z,77.67
2017-09-18T13:29:42.520Z,72.71
2017-09-18T13:32:10.861Z,70.91
2017-09-18T13:34:39.174Z,66.23
2017-09-18T13:37:07.502Z,64.32
2017-09-18T13:39:36.610Z,66.41
2017-09-18T13:42:04.927Z,64.97
2017-09-18T13:44:33.238Z,66.15
2017-09-18T13:47:01.583Z,63.89
2017-09-18T13:49:29.900Z,63.44
2017-09-18T13:51:58.224Z,62.20
2017-09-18T13:54:26.563Z,62.42
2017-09-18T13:56:54.888Z,58.56
2017-09-18T13:59:23.202Z,58.25
2017-09-18T14:01:51.543Z,54.36
2017-09-18T14:04:19.854Z,56.45
2017-09-18T14:06:48.196Z,60.31
2017-09-18T14:09:16.519Z,57.63
2017-09-18T14:11:44.861Z,52.80
2017-09-18T14:14:13.174Z,50.08
2017-09-18T14:16:41.498Z,53.20
2017-09-18T14:19:10.728Z,57.08
2017-09-18T14:21:39.041Z,58.82
2017-09-18T14:24:07.415Z,61.46
2017-09-18T14:26:35.767Z,61.61
2017-09-18T14:29:04.088Z,63.53
2017-09-18T14:31:32.410Z,64.47
2017-09-18T14:34:00.764Z,65.70
2017-09-18T14:36:29.849Z,66.95
2017-09-18T14:38:58.162Z,66.96
2017-09-18T14:41:26.506Z,67.07
2017-09-18T14:43:54.818Z,63.24
2017-09-18T14:46:23.894Z,63.05
2017-09-18T14:48:53.007Z,56.93
2017-09-18T14:51:22.096Z,53.34
2017-09-18T14:53:51.174Z,52.34
2017-09-18T14:56:19.530Z,53.04
2017-09-18T14:58:47.846Z,56.48
2017-09-18T15:01:16.936Z,58.67
2017-09-18T15:03:45.275Z,59.04
2017-09-18T15:06:13.593Z,61.92
2017-09-18T15:08:41.934Z,62.28
2017-09-18T15:11:10.279Z,62.82
2017-09-18T15:13:39.361Z,62.51
2017-09-18T15:16:07.707Z,63.77
2017-09-18T15:18:36.787Z,65.04
2017-09-18T15:21:05.102Z,64.57
2017-09-18T15:23:33.446Z,65.62
2017-09-18T15:26:01.758Z,65.81
2017-09-18T15:28:30.071Z,66.85
2017-09-18T15:30:59.179Z,67.59
2017-09-18T15:33:27.490Z,67.65
2017-09-18T15:35:55.807Z,70.58
2017-09-18T15:38:24.150Z,71.49
2017-09-18T15:40:52.462Z,73.38
2017-09-18T15:43:20.779Z,72.86
2017-09-18T15:45:49.122Z,74.98
2017-09-18T15:48:17.434Z,74.82
2017-09-18T15:50:45.760Z,74.69
2017-09-18T15:53:14.183Z,75.22
2017-09-18T15:55:43.263Z,74.23
2017-09-18T15:58:11.603Z,75.72
2017-09-18T16:00:40.723Z,75.82
2017-09-18T16:03:09.802Z,75.85
2017-09-18T16:05:38.118Z,75.73
2017-09-18T16:08:06.462Z,75.71
2017-09-18T16:10:34.775Z,78.29
2017-09-18T16:13:03.114Z,77.99
2017-09-18T16:15:31.430Z,76.99
2017-09-18T16:17:59.750Z,76.17
2017-09-18T16:20:28.094Z,76.17
2017-09-18T16:22:56.407Z,75.75
2017-09-18T16:25:24.724Z,75.89
2017-09-18T16:27:53.062Z,76.56
2017-09-18T16:30:21.377Z,77.48
2017-09-18T16:32:49.702Z,79.20
2017-09-18T16:35:18.810Z,79.78
2017-09-18T16:37:47.930Z,80.01
2017-09-18T16:40:16.257Z,81.15
2017-09-18T16:42:44.607Z,80.93
2017-09-18T16:45:12.933Z,82.70
2017-09-18T16:47:41.254Z,82.94
2017-09-18T16:50:09.600Z,82.37
2017-09-18T16:52:38.690Z,83.37
2017-09-18T16:55:07.012Z,82.38
2017-09-18T16:57:35.362Z,82.46
2017-09-18T17:00:04.446Z,83.01
2017-09-18T17:02:32.771Z,82.19
2017-09-18T17:05:01.112Z,82.71
2017-09-18T17:07:30.198Z,83.53
2017-09-18T17:09:58.520Z,83.03
2017-09-18T17:12:26.863Z,82.01
2017-09-18T17:14:57.285Z,81.03
2017-09-18T17:17:25.594Z,81.09
2017-09-18T17:19:53.939Z,81.17
2017-09-18T17:22:22.263Z,81.90
2017-09-18T17:24:50.587Z,81.07
2017-09-18T17:27:18.936Z,82.28
2017-09-18T17:29:47.251Z,82.32
2017-09-18T17:32:15.574Z,82.60
2017-09-18T17:34:44.686Z,82.89
2017-09-18T17:37:14.018Z,82.98
2017-09-18T17:39:42.418Z,82.88
2017-09-18T17:42:10.762Z,83.19
2017-09-18T17:44:39.743Z,83.50
2017-09-18T17:47:09.156Z,83.80
2017-09-18T17:49:38.334Z,84.30
2017-09-18T17:52:07.414Z,84.62
2017-09-18T17:54:36.499Z,84.54
2017-09-18T17:57:04.844Z,85.20
2017-09-18T17:59:33.385Z,85.11
2017-09-18T18:02:05.341Z,84.53
2017-09-18T18:04:35.999Z,85.55
2017-09-18T18:07:06.500Z,86.01
2017-09-18T18:09:38.870Z,85.46
2017-09-18T18:12:10.712Z,86.12
2017-09-18T18:14:44.183Z,87.50
2017-09-18T18:17:14.119Z,88.15
2017-09-18T18:19:44.076Z,87.52
2017-09-18T18:22:14.482Z,86.44
2017-09-18T18:24:45.510Z,86.34
2017-09-18T18:27:14.247Z,86.47
2017-09-18T18:29:45.213Z,86.07
2017-09-18T18:32:15.759Z,85.65
2017-09-18T18:34:47.137Z,85.48
2017-09-18T18:37:18.999Z,85.65
2017-09-18T18:39:50.432Z,86.09
2017-09-18T18:42:21.522Z,85.55
2017-09-18T18:44:53.449Z,85.21
2017-09-18T18:47:23.910Z,86.17
2017-09-18T18:49:54.647Z,87.56
2017-09-18T18:52:26.649Z,87.15
2017-09-18T18:54:58.496Z,88.17
2017-09-18T18:57:31.845Z,87.76
2017-09-18T19:00:06.761Z,87.48
2017-09-18T19:02:40.182Z,86.94
2017-09-18T19:05:12.278Z,87.13
2017-09-18T19:07:45.571Z,86.54
2017-09-18T19:10:19.188Z,86.86
2017-09-18T19:12:52.605Z,86.81
2017-09-18T19:15:24.200Z,87.40
2017-09-18T19:17:54.089Z,87.16
2017-09-18T19:20:27.216Z,86.99
2017-09-18T19:22:58.876Z,87.03
2017-09-18T19:25:28.951Z,86.60
2017-09-18T19:28:00.116Z,86.30
2017-09-18T19:30:29.532Z,87.13
2017-09-18T19:32:59.085Z,87.81
2017-09-18T19:35:29.484Z,87.45
2017-09-18T19:37:59.241Z,87.16
2017-09-18T19:40:30.924Z,88.04
2017-09-18T19:43:01.225Z,87.74
2017-09-18T19:45:33.188Z,88.61
2017-09-18T19:48:05.036Z,89.04
2017-09-18T19:50:36.546Z,90.10
2017-09-18T19:53:08.772Z,93.60
2017-09-18T19:55:42.011Z,93.03
2017-09-18T19:58:13.982Z,92.62
2017-09-18T20:00:46.341Z,92.57
2017-09-18T20:03:18.085Z,92.01
2017-09-18T20:05:51.525Z,91.17
2017-09-18T20:08:24.712Z,90.75
2017-09-18T20:10:59.674Z,90.09
2017-09-18T20:13:30.662Z,90.02
2017-09-18T20:16:00.963Z,90.60
2017-09-18T20:18:34.702Z,90.41
2017-09-18T20:21:06.485Z,90.91
2017-09-18T20:23:38.965Z,90.68
2017-09-18T20:26:10.397Z,89.79
2017-09-18T20:28:40.449Z,89.43
2017-09-18T20:31:13.433Z,88.82
2017-09-18T20:33:45.383Z,88.62
2017-09-18T20:36:16.908Z,88.47
2017-09-18T20:38:49.882Z,89.47
2017-09-18T20:41:23.116Z,89.44
2017-09-18T20:43:55.336Z,89.06
2017-09-18T20:46:29.287Z,88.42
2017-09-18T20:49:02.970Z,88.29
2017-09-18T20:51:37.081Z,88.89
2017-09-18T20:54:11.410Z,88.06
2017-09-18T20:56:43.382Z,87.86
2017-09-18T20:59:15.895Z,88.46
2017-09-18T21:01:49.425Z,89.08
2017-09-18T21:04:22.152Z,89.04
2017-09-18T21:06:52.527Z,88.87
2017-09-18T21:09:24.447Z,89.14
2017-09-18T21:11:54.235Z,89.11
2017-09-18T21:14:24.186Z,88.88
2017-09-18T21:16:56.090Z,88.31
2017-09-18T21:19:27.759Z,87.51
2017-09-18T21:22:00.317Z,88.19
2017-09-18T21:24:29.238Z,87.96
2017-09-18T21:27:01.927Z,87.64
2017-09-18T21:29:34.721Z,88.28
2017-09-18T21:32:06.459Z,87.37
2017-09-18T21:34:39.084Z,87.19
2017-09-18T21:37:10.506Z,87.10
2017-09-18T21:39:43.778Z,86.89
2017-09-18T21:42:15.306Z,88.25
2017-09-18T21:44:46.280Z,88.56
2017-09-18T21:47:18.773Z,89.39
2017-09-18T21:49:51.048Z,89.77
2017-09-18T21:52:23.351Z,89.69
2017-09-18T21:54:51.701Z,90.02
2017-09-18T21:57:20.787Z,89.23
2017-09-18T21:59:49.881Z,88.74
2017-09-18T22:02:18.996Z,87.66
2017-09-18T22:04:48.088Z,87.50
2017-09-18T22:07:17.216Z,87.15
2017-09-18T22:09:45.591Z,86.54
2017-09-18T22:12:14.010Z,86.67
2017-09-18T22:14:42.363Z,87.14
2017-09-18T22:17:10.737Z,87.16
2017-09-18T22:19:39.146Z,88.15
2017-09-18T22:22:07.491Z,88.49
2017-09-18T22:24:35.835Z,89.97
2017-09-18T22:27:04.201Z,89.52
2017-09-18T22:29:32.530Z,88.66
2017-09-18T22:32:00.925Z,88.83
2017-09-18T22:34:29.244Z,89.55
2017-09-18T22:36:57.585Z,90.30
2017-09-18T22:39:25.931Z,89.79
2017-09-18T22:41:55.021Z,89.61
2017-09-18T22:44:24.114Z,89.48
2017-09-18T22:46:53.230Z,89.27
2017-09-18T22:49:21.559Z,89.31
2017-09-18T22:51:49.882Z,88.71
2017-09-18T22:54:18.995Z,89.43
2017-09-18T22:56:47.316Z,89.49
2017-09-18T22:59:15.635Z,89.11
2017-09-18T23:01:44.764Z,89.52
2017-09-18T23:04:13.087Z,90.17
2017-09-18T23:06:42.657Z,90.12
2017-09-18T23:09:11.002Z,90.60
2017-09-18T23:11:40.095Z,90.06
2017-09-18T23:14:09.202Z,89.21
2017-09-18T23:16:38.296Z,89.72
2017-09-18T23:19:07.410Z,90.46
2017-09-18T23:21:35.735Z,89.38
2017-09-18T23:24:04.822Z,89.34
2017-09-18T23:26:33.170Z,88.75
2017-09-18T23:29:01.494Z,89.09
2017-09-18T23:31:29.819Z,89.82
2017-09-18T23:33:58.169Z,89.80
2017-09-18T23:36:26.491Z,89.02
2017-09-18T23:38:54.815Z,89.28
2017-09-18T23:41:23.166Z,89.11
2017-09-18T23:43:51.509Z,88.71
2017-09-18T23:46:20.622Z,88.69
2017-09-18T23:48:48.943Z,88.99
2017-09-18T23:51:17.270Z,89.13
2017-09-18T23:53:46.378Z,89.06
2017-09-18T23:56:14.705Z,89.33
2017-09-18T23:58:44.287Z,89.42
